createdAt,value
2022-10-29T00:01:17.741Z,83.00
2022-10-29T00:04:04.607Z,82.34
2022-10-29T00:06:51.425Z,82.17
2022-10-29T00:09:38.247Z,82.62
2022-10-29T00:12:25.117Z,83.00
2022-10-29T00:15:11.812Z,82.72
2022-10-29T00:17:58.829Z,83.26
2022-10-29T00:20:45.660Z,82.36
2022-10-29T00:23:32.374Z,83.36
2022-10-29T00:26:19.876Z,82.62
2022-10-29T00:29:06.942Z,82.68
2022-10-29T00:31:53.874Z,83.19
2022-10-29T00:34:40.624Z,83.12
2022-10-29T00:37:27.341Z,82.40
2022-10-29T00:40:14.051Z,82.38
2022-10-29T00:43:00.767Z,82.89
2022-10-29T00:45:47.466Z,82.84
2022-10-29T00:48:34.199Z,83.18
2022-10-29T00:51:25.866Z,83.15
2022-10-29T00:54:16.610Z,83.23
2022-10-29T00:57:10.622Z,83.24
2022-10-29T00:59:57.564Z,82.79
2022-10-29T01:02:44.553Z,83.30
2022-10-29T01:05:34.742Z,83.39
2022-10-29T01:08:22.080Z,82.57
2022-10-29T01:11:46.261Z,83.16
2022-10-29T01:15:10.152Z,83.44
2022-10-29T01:18:26.477Z,83.33
2022-10-29T01:21:29.823Z,82.50
2022-10-29T01:24:47.286Z,82.71
2022-10-29T01:27:52.844Z,82.94
2022-10-29T01:31:07.071Z,83.38
2022-10-29T01:34:11.880Z,83.43
2022-10-29T01:37:01.472Z,82.48
2022-10-29T01:40:10.970Z,82.36
2022-10-29T01:43:00.418Z,82.35
2022-10-29T01:45:53.944Z,83.04
2022-10-29T01:48:47.916Z,82.43
2022-10-29T01:51:42.742Z,83.09
2022-10-29T01:54:31.402Z,82.50
2022-10-29T01:57:19.167Z,82.59
2022-10-29T02:00:05.992Z,83.21
2022-10-29T02:03:18.546Z,83.54
2022-10-29T02:06:08.333Z,82.77
2022-10-29T02:09:33.203Z,83.25
2022-10-29T02:12:37.527Z,83.32
2022-10-29T02:15:32.464Z,82.47
2022-10-29T02:18:25.474Z,83.52
2022-10-29T02:21:12.255Z,82.99
2022-10-29T02:23:59.107Z,82.58
2022-10-29T02:26:45.811Z,83.56
2022-10-29T02:29:32.512Z,83.34
2022-10-29T02:32:19.344Z,82.43
2022-10-29T02:35:06.038Z,83.19
2022-10-29T02:37:52.802Z,83.03
2022-10-29T02:40:39.514Z,82.38
2022-10-29T02:43:26.295Z,82.56
2022-10-29T02:46:39.939Z,82.88
2022-10-29T02:49:27.543Z,83.20
2022-10-29T02:52:14.267Z,83.42
2022-10-29T02:55:01.047Z,83.24
2022-10-29T02:57:47.744Z,83.32
2022-10-29T03:00:35.102Z,82.63
2022-10-29T03:03:21.886Z,83.66
2022-10-29T03:06:08.956Z,83.51
2022-10-29T03:08:55.776Z,83.32
2022-10-29T03:11:42.559Z,83.71
2022-10-29T03:14:29.311Z,83.86
2022-10-29T03:17:16.068Z,83.14
2022-10-29T03:20:02.801Z,83.85
2022-10-29T03:22:49.551Z,83.06
2022-10-29T03:25:36.367Z,83.40
2022-10-29T03:28:24.993Z,83.86
2022-10-29T03:31:11.752Z,84.11
2022-10-29T03:33:58.454Z,84.29
2022-10-29T03:36:45.191Z,84.39
2022-10-29T03:39:31.982Z,83.98
2022-10-29T03:42:18.673Z,84.02
2022-10-29T03:45:05.374Z,84.29
2022-10-29T03:47:53.614Z,85.04
2022-10-29T03:50:40.487Z,84.63
2022-10-29T03:53:28.436Z,84.64
2022-10-29T03:56:16.722Z,85.14
2022-10-29T03:59:03.588Z,84.91
2022-10-29T04:01:50.376Z,85.00
2022-10-29T04:04:37.282Z,85.21
2022-10-29T04:07:24.021Z,85.04
2022-10-29T04:10:10.714Z,85.49
2022-10-29T04:12:57.904Z,85.83
2022-10-29T04:15:44.842Z,85.76
2022-10-29T04:18:32.460Z,86.13
2022-10-29T04:28:41.911Z,86.40
2022-10-29T04:30:42.563Z,86.34
2022-10-29T04:33:29.273Z,86.68
2022-10-29T04:36:16.059Z,86.78
2022-10-29T04:39:02.766Z,86.71
2022-10-29T04:41:49.499Z,86.89
2022-10-29T04:44:36.231Z,87.12
2022-10-29T04:47:23.072Z,86.65
2022-10-29T04:50:09.773Z,87.40
2022-10-29T04:52:56.485Z,87.25
2022-10-29T04:55:43.175Z,87.45
2022-10-29T04:58:36.034Z,87.18
2022-10-29T05:01:23.830Z,87.36
2022-10-29T05:04:10.711Z,87.71
2022-10-29T05:06:57.439Z,87.58
2022-10-29T05:09:44.292Z,88.33
2022-10-29T05:12:30.989Z,87.51
2022-10-29T05:15:17.719Z,87.96
2022-10-29T05:18:04.478Z,88.10
2022-10-29T05:20:51.491Z,88.31
2022-10-29T05:23:38.210Z,87.89
2022-10-29T05:26:25.001Z,88.14
2022-10-29T05:29:11.830Z,88.31
2022-10-29T05:31:58.526Z,89.11
2022-10-29T05:34:45.244Z,88.40
2022-10-29T05:37:31.934Z,88.29
2022-10-29T05:40:18.632Z,88.91
2022-10-29T05:43:05.386Z,88.42
2022-10-29T05:45:52.299Z,88.67
2022-10-29T05:48:39.117Z,88.60
2022-10-29T05:51:25.814Z,89.31
2022-10-29T05:54:12.550Z,88.64
2022-10-29T05:56:39.286Z,88.90
2022-10-29T05:59:06.117Z,89.48
2022-10-29T06:01:32.930Z,88.84
2022-10-29T06:04:01.334Z,89.12
2022-10-29T06:06:28.223Z,89.62
2022-10-29T06:08:55.018Z,89.72
2022-10-29T06:11:21.750Z,89.03
2022-10-29T06:13:48.489Z,89.76
2022-10-29T06:16:15.254Z,90.10
2022-10-29T06:18:42.002Z,89.67
2022-10-29T06:21:08.843Z,89.62
2022-10-29T06:23:35.575Z,89.83
2022-10-29T06:26:03.461Z,90.24
2022-10-29T06:28:34.637Z,89.73
2022-10-29T06:31:01.825Z,90.28
2022-10-29T06:33:48.544Z,89.99
2022-10-29T06:36:35.245Z,90.18
2022-10-29T06:39:21.946Z,89.53
2022-10-29T06:42:08.627Z,90.53
2022-10-29T06:44:55.331Z,90.21
2022-10-29T06:47:42.006Z,90.53
2022-10-29T06:50:29.794Z,90.52
2022-10-29T06:53:21.841Z,90.01
2022-10-29T06:56:08.547Z,89.86
2022-10-29T06:58:55.249Z,90.71
2022-10-29T07:01:42.020Z,90.42
2022-10-29T07:04:28.744Z,90.80
2022-10-29T07:07:15.479Z,90.43
2022-10-29T07:10:02.239Z,90.68
2022-10-29T07:12:48.975Z,89.69
2022-10-29T07:15:35.888Z,90.98
2022-10-29T07:18:25.052Z,90.33
2022-10-29T07:21:11.736Z,90.26
2022-10-29T07:23:58.435Z,91.01
2022-10-29T07:26:45.335Z,90.61
2022-10-29T07:29:32.060Z,90.84
2022-10-29T07:32:18.757Z,90.35
2022-10-29T07:35:05.448Z,90.28
2022-10-29T07:37:52.168Z,91.13
2022-10-29T07:40:38.922Z,90.88
2022-10-29T07:43:25.926Z,90.53
2022-10-29T07:46:12.667Z,91.37
2022-10-29T07:48:59.375Z,90.28
2022-10-29T07:51:46.114Z,90.32
2022-10-29T07:54:32.812Z,90.74
2022-10-29T07:57:19.515Z,90.85
2022-10-29T08:00:06.291Z,90.42
2022-10-29T08:02:59.401Z,91.35
2022-10-29T08:05:48.905Z,91.48
2022-10-29T08:08:37.636Z,90.50
2022-10-29T08:11:25.236Z,90.83
2022-10-29T08:14:11.998Z,90.52
2022-10-29T08:16:58.709Z,90.33
2022-10-29T08:19:45.450Z,90.52
2022-10-29T08:22:32.464Z,90.53
2022-10-29T08:25:19.252Z,91.54
2022-10-29T08:28:06.023Z,91.27
2022-10-29T08:30:52.830Z,90.95
2022-10-29T08:33:39.627Z,91.48
2022-10-29T08:36:26.535Z,91.45
2022-10-29T08:39:13.259Z,91.30
2022-10-29T08:42:24.646Z,91.23
2022-10-29T08:45:11.319Z,91.12
2022-10-29T08:48:41.836Z,91.34
2022-10-29T08:51:38.492Z,90.80
2022-10-29T08:54:30.734Z,90.91
2022-10-29T08:57:22.211Z,90.88
2022-10-29T09:00:22.254Z,91.35
2022-10-29T09:03:15.554Z,90.85
2022-10-29T09:06:31.370Z,91.54
2022-10-29T09:09:25.518Z,90.50
2022-10-29T09:12:26.082Z,90.66
2022-10-29T09:15:23.408Z,91.22
2022-10-29T09:18:48.751Z,91.45
2022-10-29T09:21:58.255Z,90.69
2022-10-29T09:25:10.070Z,91.52
2022-10-29T09:28:11.010Z,90.33
2022-10-29T09:31:11.307Z,90.37
2022-10-29T09:34:01.806Z,90.63
2022-10-29T09:36:50.802Z,91.26
2022-10-29T09:39:49.486Z,90.59
2022-10-29T09:42:56.876Z,91.71
2022-10-29T09:45:54.691Z,90.58
2022-10-29T09:48:50.047Z,90.34
2022-10-29T09:51:50.067Z,90.79
2022-10-29T09:54:37.204Z,91.18
2022-10-29T09:57:25.482Z,90.58
2022-10-29T10:00:46.109Z,90.93
2022-10-29T10:03:35.506Z,90.82
2022-10-29T10:06:27.938Z,91.04
2022-10-29T10:09:24.844Z,91.24
2022-10-29T10:12:14.180Z,90.69
2022-10-29T10:15:00.895Z,91.04
2022-10-29T10:17:47.680Z,91.17
2022-10-29T10:20:46.092Z,91.04
2022-10-29T10:23:44.882Z,89.72
2022-10-29T10:26:57.813Z,89.67
2022-10-29T10:29:45.891Z,90.12
2022-10-29T10:32:36.993Z,89.69
2022-10-29T10:35:41.771Z,89.36
2022-10-29T10:38:29.911Z,88.35
2022-10-29T10:41:21.288Z,88.08
2022-10-29T10:44:08.563Z,88.86
2022-10-29T10:46:59.634Z,87.69
2022-10-29T10:49:51.475Z,87.91
2022-10-29T10:52:46.544Z,86.85
2022-10-29T10:55:48.157Z,86.62
2022-10-29T10:58:40.662Z,86.32
2022-10-29T11:01:33.329Z,86.33
2022-10-29T11:04:53.280Z,85.76
2022-10-29T11:07:41.755Z,86.45
2022-10-29T11:10:32.232Z,84.97
2022-10-29T11:13:22.959Z,85.24
2022-10-29T11:16:27.062Z,84.83
2022-10-29T11:19:25.624Z,84.49
2022-10-29T11:22:29.499Z,84.21
2022-10-29T11:25:43.674Z,82.98
2022-10-29T11:28:52.032Z,82.71
2022-10-29T11:32:02.960Z,82.61
2022-10-29T11:34:58.330Z,81.08
2022-10-29T11:38:04.338Z,80.66
2022-10-29T11:41:05.917Z,81.55
2022-10-29T11:43:53.544Z,80.03
2022-10-29T11:46:40.210Z,79.89
2022-10-29T11:49:45.117Z,79.77
2022-10-29T11:52:42.467Z,79.54
2022-10-29T11:56:06.562Z,79.63
2022-10-29T11:58:56.265Z,79.00
2022-10-29T12:02:03.308Z,77.87
2022-10-29T12:04:57.923Z,78.69
2022-10-29T12:08:16.405Z,77.86
2022-10-29T12:11:21.373Z,77.62
2022-10-29T12:14:17.647Z,77.55
2022-10-29T12:17:10.370Z,76.41
2022-10-29T12:20:27.618Z,77.50
2022-10-29T12:23:31.486Z,76.22
2022-10-29T12:26:36.842Z,76.87
2022-10-29T12:29:35.911Z,76.43
2022-10-29T12:32:57.989Z,75.28
2022-10-29T12:35:52.460Z,75.10
2022-10-29T12:39:00.674Z,75.69
2022-10-29T12:41:56.481Z,74.80
2022-10-29T12:44:50.883Z,75.01
2022-10-29T12:47:49.126Z,74.77
2022-10-29T12:50:53.731Z,73.98
2022-10-29T12:53:46.445Z,74.29
2022-10-29T12:56:35.241Z,73.28
2022-10-29T12:59:50.975Z,73.54
2022-10-29T13:02:56.542Z,73.30
2022-10-29T13:05:55.473Z,72.58
2022-10-29T13:08:54.419Z,71.97
2022-10-29T13:11:44.751Z,72.68
2022-10-29T13:14:36.590Z,71.63
2022-10-29T13:17:27.077Z,70.45
2022-10-29T13:20:21.453Z,71.06
2022-10-29T13:23:10.962Z,70.21
2022-10-29T13:25:57.623Z,69.28
2022-10-29T13:28:44.298Z,69.51
2022-10-29T13:31:33.948Z,68.60
2022-10-29T13:34:20.691Z,69.11
2022-10-29T13:37:07.379Z,68.26
2022-10-29T13:39:54.071Z,68.56
2022-10-29T13:42:40.855Z,67.99
2022-10-29T13:45:33.634Z,67.39
2022-10-29T13:48:36.981Z,68.00
2022-10-29T13:51:28.132Z,66.55
2022-10-29T13:57:58.821Z,66.74
2022-10-29T14:00:47.486Z,65.74
2022-10-29T14:04:12.381Z,66.40
2022-10-29T14:07:00.025Z,66.11
2022-10-29T14:10:06.433Z,66.14
2022-10-29T14:12:53.400Z,65.17
2022-10-29T14:15:40.236Z,64.56
2022-10-29T14:18:45.190Z,65.70
2022-10-29T14:21:56.926Z,65.20
2022-10-29T14:24:43.738Z,65.15
2022-10-29T14:27:36.483Z,64.58
2022-10-29T14:30:34.199Z,64.36
2022-10-29T14:33:20.962Z,64.64
2022-10-29T14:36:07.845Z,63.63
2022-10-29T14:39:06.188Z,63.59
2022-10-29T14:41:53.038Z,64.25
2022-10-29T14:44:45.620Z,63.68
2022-10-29T14:47:44.302Z,63.79
2022-10-29T14:50:43.303Z,63.52
2022-10-29T14:53:41.498Z,63.37
2022-10-29T14:56:31.465Z,63.79
2022-10-29T14:59:19.164Z,63.45
2022-10-29T15:02:36.111Z,63.64
2022-10-29T15:05:19.958Z,63.72
2022-10-29T15:08:06.721Z,63.45
2022-10-29T15:11:10.986Z,63.81
2022-10-29T15:13:57.793Z,63.56
2022-10-29T15:16:44.734Z,63.03
2022-10-29T15:19:36.026Z,63.39
2022-10-29T15:22:29.045Z,63.19
2022-10-29T15:25:16.248Z,62.95
2022-10-29T15:28:03.131Z,62.87
2022-10-29T15:30:53.724Z,63.39
2022-10-29T15:33:49.339Z,63.15
2022-10-29T15:36:36.056Z,62.79
2022-10-29T15:39:37.700Z,63.51
2022-10-29T15:42:40.784Z,63.43
2022-10-29T15:45:27.443Z,63.21
2022-10-29T15:48:18.086Z,62.82
2022-10-29T15:51:05.978Z,62.77
2022-10-29T15:53:52.695Z,63.31
2022-10-29T15:56:42.119Z,63.29
2022-10-29T15:59:34.321Z,63.64
2022-10-29T16:02:21.166Z,63.08
2022-10-29T16:05:08.144Z,63.03
2022-10-29T16:07:54.872Z,62.98
2022-10-29T16:10:21.956Z,63.10
2022-10-29T16:13:09.798Z,62.97
2022-10-29T16:15:56.511Z,63.51
2022-10-29T16:18:43.410Z,63.30
2022-10-29T16:21:37.150Z,63.67
2022-10-29T16:24:24.440Z,63.27
2022-10-29T16:27:11.134Z,62.78
2022-10-29T16:29:57.833Z,63.10
2022-10-29T16:32:44.864Z,62.93
2022-10-29T16:35:46.482Z,63.18
2022-10-29T16:38:33.170Z,63.16
2022-10-29T16:41:19.966Z,62.93
2022-10-29T16:44:07.678Z,62.87
2022-10-29T16:46:54.417Z,63.06
2022-10-29T16:49:41.200Z,63.00
2022-10-29T16:52:32.746Z,63.34
2022-10-29T16:55:19.742Z,62.96
2022-10-29T16:58:06.550Z,63.04
2022-10-29T17:00:53.333Z,62.77
2022-10-29T17:03:40.255Z,63.14
2022-10-29T17:06:29.401Z,62.97
2022-10-29T17:09:16.113Z,63.18
2022-10-29T17:12:02.835Z,63.60
2022-10-29T17:14:49.559Z,62.80
2022-10-29T17:17:36.252Z,62.84
2022-10-29T17:20:23.125Z,63.02
2022-10-29T17:23:09.919Z,63.13
2022-10-29T17:25:56.617Z,63.20
2022-10-29T17:28:45.094Z,63.25
2022-10-29T17:31:31.853Z,63.02
2022-10-29T17:34:18.552Z,62.74
2022-10-29T17:37:05.255Z,63.20
2022-10-29T17:39:52.204Z,62.78
2022-10-29T17:42:38.990Z,63.16
2022-10-29T17:45:26.292Z,62.81
2022-10-29T17:48:19.725Z,62.60
2022-10-29T17:51:15.126Z,62.94
2022-10-29T17:54:01.822Z,63.05
2022-10-29T17:56:50.535Z,62.91
2022-10-29T17:59:37.255Z,62.84
2022-10-29T18:02:24.145Z,63.19
2022-10-29T18:05:10.931Z,62.84
2022-10-29T18:07:57.969Z,62.71
2022-10-29T18:10:44.841Z,62.94
2022-10-29T18:13:31.559Z,62.54
2022-10-29T18:16:20.417Z,62.79
2022-10-29T18:19:08.853Z,62.71
2022-10-29T18:21:55.602Z,62.71
2022-10-29T18:24:42.348Z,62.64
2022-10-29T18:27:29.154Z,62.56
2022-10-29T18:30:15.857Z,62.83
2022-10-29T18:33:02.724Z,62.34
2022-10-29T18:35:49.527Z,62.43
2022-10-29T18:38:36.261Z,62.38
2022-10-29T18:41:23.104Z,62.51
2022-10-29T18:44:10.618Z,62.22
2022-10-29T18:46:57.351Z,62.36
2022-10-29T18:49:44.151Z,62.61
2022-10-29T18:52:30.895Z,62.81
2022-10-29T18:55:17.614Z,62.86
2022-10-29T18:58:04.343Z,62.78
2022-10-29T19:00:51.157Z,62.57
2022-10-29T19:03:38.196Z,62.49
2022-10-29T19:06:27.798Z,62.75
2022-10-29T19:09:15.548Z,62.78
2022-10-29T19:12:02.313Z,62.77
2022-10-29T19:14:49.117Z,62.57
2022-10-29T19:17:35.823Z,62.72
2022-10-29T19:20:22.522Z,62.54
2022-10-29T19:23:09.281Z,62.76
2022-10-29T19:25:59.991Z,62.58
2022-10-29T19:28:49.407Z,62.65
2022-10-29T19:31:38.722Z,62.76
2022-10-29T19:34:27.328Z,62.44
2022-10-29T19:37:14.094Z,62.68
2022-10-29T19:40:02.255Z,62.89
2022-10-29T19:42:49.041Z,62.85
2022-10-29T19:45:35.832Z,62.70
2022-10-29T19:48:22.594Z,62.86
2022-10-29T19:51:13.904Z,62.89
2022-10-29T19:54:00.602Z,62.80
2022-10-29T19:56:47.317Z,62.35
2022-10-29T19:59:34.008Z,62.72
2022-10-29T20:02:20.774Z,62.97
2022-10-29T20:05:07.542Z,62.78
2022-10-29T20:07:54.640Z,62.92
2022-10-29T20:10:41.493Z,62.74
2022-10-29T20:13:28.203Z,63.04
2022-10-29T20:16:15.266Z,62.98
2022-10-29T20:19:02.086Z,62.85
2022-10-29T20:21:48.839Z,63.12
2022-10-29T20:24:35.547Z,62.94
2022-10-29T20:27:22.297Z,62.97
2022-10-29T20:30:09.085Z,63.25
2022-10-29T20:32:56.005Z,63.31
2022-10-29T20:35:43.018Z,63.26
2022-10-29T20:38:29.778Z,63.06
2022-10-29T20:41:16.494Z,63.21
2022-10-29T20:44:04.491Z,63.57
2022-10-29T20:46:51.195Z,62.73
2022-10-29T20:49:37.921Z,63.57
2022-10-29T20:52:24.795Z,62.88
2022-10-29T20:55:12.704Z,63.47
2022-10-29T20:57:59.862Z,62.81
2022-10-29T21:00:47.151Z,63.12
2022-10-29T21:03:35.423Z,63.35
2022-10-29T21:06:27.119Z,63.44
2022-10-29T21:09:13.848Z,62.94
2022-10-29T21:12:01.163Z,63.67
2022-10-29T21:14:47.889Z,63.32
2022-10-29T21:17:34.859Z,62.98
2022-10-29T21:20:21.585Z,63.64
2022-10-29T21:23:08.393Z,63.64
2022-10-29T21:25:55.168Z,63.29
2022-10-29T21:28:41.847Z,63.36
2022-10-29T21:31:28.886Z,63.37
2022-10-29T21:34:15.935Z,63.77
2022-10-29T21:37:02.657Z,63.41
2022-10-29T21:39:49.455Z,63.96
2022-10-29T21:42:36.174Z,63.87
2022-10-29T21:45:23.295Z,63.71
2022-10-29T21:48:10.003Z,63.76
2022-10-29T21:50:56.735Z,63.30
2022-10-29T21:53:43.601Z,64.00
2022-10-29T21:56:32.794Z,63.42
2022-10-29T21:59:19.647Z,63.91
2022-10-29T22:02:06.451Z,63.38
2022-10-29T22:04:53.245Z,63.74
2022-10-29T22:07:39.933Z,63.95
2022-10-29T22:10:27.459Z,63.80
2022-10-29T22:13:14.598Z,63.97
2022-10-29T22:16:04.843Z,64.19
2022-10-29T22:18:52.562Z,63.73
2022-10-29T22:21:41.674Z,63.94
2022-10-29T22:24:29.291Z,63.37
2022-10-29T22:27:16.009Z,63.56
2022-10-29T22:30:02.730Z,64.17
2022-10-29T22:32:37.913Z,63.64
2022-10-29T22:35:06.055Z,63.44
2022-10-29T22:37:52.785Z,63.77
2022-10-29T22:40:39.541Z,64.15
2022-10-29T22:43:26.282Z,63.81
2022-10-29T22:46:13.003Z,64.04
2022-10-29T22:49:00.018Z,64.40
2022-10-29T22:51:29.464Z,63.89
2022-10-29T22:53:57.191Z,64.37
2022-10-29T22:56:49.546Z,64.47
2022-10-29T22:59:36.256Z,64.42
2022-10-29T23:02:23.166Z,64.07
2022-10-29T23:05:09.960Z,64.10
2022-10-29T23:07:56.862Z,64.67
2022-10-29T23:10:43.758Z,64.25
2022-10-29T23:13:30.500Z,64.61
2022-10-29T23:16:17.214Z,64.70
2022-10-29T23:19:08.183Z,64.46
2022-10-29T23:21:51.667Z,64.88
2022-10-29T23:24:18.452Z,64.72
2022-10-29T23:26:45.203Z,64.89
2022-10-29T23:29:11.939Z,64.88
2022-10-29T23:31:38.709Z,64.56
2022-10-29T23:34:06.338Z,64.34
2022-10-29T23:36:33.802Z,64.49
2022-10-29T23:39:01.404Z,64.89
2022-10-29T23:41:29.672Z,64.68
2022-10-29T23:43:57.141Z,64.50
2022-10-29T23:46:24.016Z,64.29
2022-10-29T23:48:50.926Z,64.87
2022-10-29T23:51:18.071Z,64.42
2022-10-29T23:53:44.801Z,65.13
2022-10-29T23:56:11.679Z,64.58
2022-10-29T23:58:38.473Z,64.73
